Terminal Aerodrome Forecast
Issued by NWS Atlanta, GA

Home | Current Version | Previous Version | Text Only | Print | Product List | Glossary On
Versions: 1 2 3 4 5 6 7 8 9 10 11 12 13 14 15
610
FTUS42 KFFC 210530
TAFCSG
TAF
KCSG 210530Z 2106/2206 VRB03KT P6SM SCT250
     FM211400 22004KT P6SM FEW040
     FM211800 20006KT P6SM VCSH SCT050
     FM220100 21003KT P6SM FEW060=

USA.gov is the U.S. government's official web portal to all federal, state and local government web resources and services.